Time;durP1;ratioP1;P1;durP2;ratioP2;P2;SDS_P1;SDS_P2;PMS_P1;PMS_P2;Temp;Humidity;BMP_temperature;BMP_pressure;BME280_temperature;BME280_humidity;BME280_pressure;Samples;Min_cycle;Max_cycle;Signal;HPM_P1;HPM_P2
2021/11/27 00:02:21;;;;;;;6.43;5.93;;;;;;;;;;4986684;28;20192;-69
2021/11/27 00:04:47;;;;;;;6.37;5.90;;;;;;;;;;4996241;28;20181;-68
2021/11/27 00:07:12;;;;;;;5.37;4.87;;;;;;;;;;4996308;28;20197;-68
2021/11/27 00:09:37;;;;;;;4.13;3.83;;;;;;;;;;4995992;28;20294;-69
2021/11/27 00:12:03;;;;;;;3.40;3.10;;;;;;;;;;4999093;28;20231;-68
2021/11/27 00:14:28;;;;;;;3.17;3.07;;;;;;;;;;4996322;28;20201;-67
2021/11/27 00:16:54;;;;;;;2.80;2.60;;;;;;;;;;4995259;28;20288;-69
2021/11/27 00:19:19;;;;;;;2.80;2.60;;;;;;;;;;4990545;28;20200;-69
2021/11/27 00:21:44;;;;;;;2.63;2.53;;;;;;;;;;4990266;28;20212;-68
2021/11/27 00:24:10;;;;;;;3.20;3.10;;;;;;;;;;4993601;28;20236;-67
2021/11/27 00:26:35;;;;;;;3.50;3.30;;;;;;;;;;4996648;28;20208;-68
2021/11/27 00:29:01;;;;;;;3.80;3.50;;;;;;;;;;4994690;28;20185;-68
2021/11/27 00:31:27;;;;;;;3.50;3.30;;;;;;;;;;4995117;28;20184;-69
2021/11/27 00:33:53;;;;;;;3.70;3.40;;;;;;;;;;4985122;28;20208;-68
2021/11/27 00:36:18;;;;;;;4.10;3.80;;;;;;;;;;4992683;28;20452;-68
2021/11/27 00:38:44;;;;;;;3.97;3.67;;;;;;;;;;4995154;28;20424;-68
2021/11/27 00:41:10;;;;;;;4.50;4.20;;;;;;;;;;4991606;28;20201;-68
2021/11/27 00:43:35;;;;;;;3.80;3.60;;;;;;;;;;4998765;28;20196;-68
2021/11/27 00:46:01;;;;;;;4.30;4.10;;;;;;;;;;4990015;28;20479;-68
2021/11/27 00:48:26;;;;;;;3.60;3.40;;;;;;;;;;4993129;28;20197;-68
2021/11/27 00:50:58;;;;;;;3.90;3.70;;;;;;;;;;4992107;28;20204;-68
2021/11/27 00:53:23;;;;;;;4.57;4.27;;;;;;;;;;4990570;28;20647;-68
2021/11/27 00:55:48;;;;;;;4.20;4.00;;;;;;;;;;4995444;28;20506;-68
2021/11/27 00:58:14;;;;;;;4.10;3.90;;;;;;;;;;4989338;28;20235;-70
2021/11/27 01:00:45;;;;;;;4.17;3.87;;;;;;;;;;4997639;28;20292;-68
2021/11/27 01:03:11;;;;;;;4.40;4.10;;;;;;;;;;4989257;28;20266;-68
2021/11/27 01:05:37;;;;;;;4.07;3.87;;;;;;;;;;4994836;28;20495;-68
2021/11/27 01:08:02;;;;;;;4.27;4.00;;;;;;;;;;4995138;28;20948;-68
2021/11/27 01:10:29;;;;;;;4.50;4.20;;;;;;;;;;4988678;28;20215;-68
2021/11/27 01:12:57;;;;;;;4.70;4.40;;;;;;;;;;4994758;28;20488;-68
2021/11/27 01:15:26;;;;;;;5.07;4.73;;;;;;;;;;4991174;28;20491;-68
2021/11/27 01:17:52;;;;;;;4.20;4.00;;;;;;;;;;4994871;28;20438;-68
2021/11/27 01:20:20;;;;;;;3.77;3.47;;;;;;;;;;4990577;28;20527;-68
2021/11/27 01:22:46;;;;;;;3.77;3.57;;;;;;;;;;4993419;28;20435;-68
2021/11/27 01:25:11;;;;;;;3.67;3.47;;;;;;;;;;4990772;28;21005;-69
2021/11/27 01:27:37;;;;;;;3.77;3.57;;;;;;;;;;4990700;28;20255;-68
2021/11/27 01:30:05;;;;;;;4.20;4.00;;;;;;;;;;4993888;28;20193;-68
2021/11/27 01:32:30;;;;;;;4.57;4.27;;;;;;;;;;4996627;28;20177;-68
2021/11/27 01:34:55;;;;;;;4.13;3.93;;;;;;;;;;4988207;28;20448;-68
2021/11/27 01:37:21;;;;;;;4.57;4.27;;;;;;;;;;4993653;28;20189;-69
2021/11/27 01:39:46;;;;;;;4.13;3.83;;;;;;;;;;4996019;28;20189;-69
2021/11/27 01:42:12;;;;;;;4.63;4.33;;;;;;;;;;4996934;28;20671;-69
2021/11/27 01:44:38;;;;;;;4.93;4.60;;;;;;;;;;4993295;28;20804;-70
2021/11/27 01:47:04;;;;;;;4.50;4.20;;;;;;;;;;5005373;28;20447;-68
2021/11/27 01:49:29;;;;;;;5.00;4.67;;;;;;;;;;4995733;28;20181;-68
2021/11/27 01:51:54;;;;;;;5.13;4.73;;;;;;;;;;4999720;28;20972;-69
2021/11/27 01:54:20;;;;;;;5.37;4.87;;;;;;;;;;4992136;28;20243;-69
2021/11/27 01:56:51;;;;;;;5.20;4.80;;;;;;;;;;4997464;28;20221;-69
2021/11/27 01:59:16;;;;;;;5.20;4.80;;;;;;;;;;4992845;28;20703;-67
2021/11/27 02:01:42;;;;;;;5.57;5.17;;;;;;;;;;4996679;28;20517;-68
2021/11/27 02:04:09;;;;;;;5.60;5.00;;;;;;;;;;4999673;28;20184;-69
2021/11/27 02:06:35;;;;;;;5.77;5.27;;;;;;;;;;4998899;28;20566;-69
2021/11/27 02:09:02;;;;;;;6.60;6.10;;;;;;;;;;4996270;28;20575;-69
2021/11/27 02:11:30;;;;;;;5.57;5.23;;;;;;;;;;4997979;28;20211;-69
2021/11/27 02:13:56;;;;;;;7.10;6.40;;;;;;;;;;4995886;28;20439;-69
2021/11/27 02:16:22;;;;;;;6.30;5.80;;;;;;;;;;4999241;28;20980;-69
2021/11/27 02:18:47;;;;;;;6.13;5.70;;;;;;;;;;5001062;28;20436;-69
2021/11/27 02:21:14;;;;;;;6.63;6.13;;;;;;;;;;4988631;28;20185;-68
2021/11/27 02:23:40;;;;;;;10.03;6.73;;;;;;;;;;4999989;28;20192;-68
2021/11/27 02:26:07;;;;;;;7.17;6.60;;;;;;;;;;4992564;28;20468;-68
2021/11/27 02:28:34;;;;;;;6.60;6.00;;;;;;;;;;4990301;28;20860;-68
2021/11/27 02:31:00;;;;;;;6.67;6.10;;;;;;;;;;4994553;28;20436;-69
2021/11/27 02:33:26;;;;;;;6.67;6.07;;;;;;;;;;4997271;28;20513;-69
2021/11/27 02:35:51;;;;;;;6.90;6.27;;;;;;;;;;4996409;28;20244;-68
2021/11/27 02:38:16;;;;;;;6.30;5.80;;;;;;;;;;5002625;28;20639;-68
2021/11/27 02:40:42;;;;;;;6.90;6.40;;;;;;;;;;4998475;28;20198;-68
2021/11/27 02:43:07;;;;;;;6.63;6.03;;;;;;;;;;4997327;28;20276;-68
2021/11/27 02:45:32;;;;;;;7.37;6.70;;;;;;;;;;4999744;28;20221;-68
2021/11/27 02:47:58;;;;;;;7.23;6.63;;;;;;;;;;5000885;28;20189;-68
2021/11/27 02:50:24;;;;;;;7.43;6.83;;;;;;;;;;4994313;28;20182;-68
2021/11/27 02:52:50;;;;;;;7.00;6.40;;;;;;;;;;4993282;28;20624;-68
2021/11/27 02:55:15;;;;;;;7.20;6.60;;;;;;;;;;4995511;28;20474;-69
2021/11/27 02:57:40;;;;;;;7.17;6.60;;;;;;;;;;4999440;28;20567;-69
2021/11/27 03:00:08;;;;;;;7.47;6.87;;;;;;;;;;4995222;28;20188;-68
2021/11/27 03:02:34;;;;;;;7.27;6.73;;;;;;;;;;4997382;28;20193;-69
2021/11/27 03:04:59;;;;;;;7.53;6.90;;;;;;;;;;4988177;28;20510;-69
2021/11/27 03:07:24;;;;;;;7.20;6.60;;;;;;;;;;4998209;28;20446;-68
2021/11/27 03:09:50;;;;;;;8.10;7.50;;;;;;;;;;5002100;28;20838;-68
2021/11/27 03:12:15;;;;;;;8.20;7.50;;;;;;;;;;4989256;28;20679;-68
2021/11/27 03:14:40;;;;;;;8.10;7.50;;;;;;;;;;4999427;28;20623;-68
2021/11/27 03:17:06;;;;;;;7.70;7.00;;;;;;;;;;4996602;28;20731;-68
2021/11/27 03:19:33;;;;;;;8.30;7.60;;;;;;;;;;4992389;28;20194;-68
2021/11/27 03:21:59;;;;;;;8.90;8.10;;;;;;;;;;4999487;28;20313;-67
2021/11/27 03:24:25;;;;;;;7.40;6.80;;;;;;;;;;4997532;28;20428;-68
2021/11/27 03:26:50;;;;;;;7.80;7.20;;;;;;;;;;4993622;28;20486;-68
2021/11/27 03:29:15;;;;;;;7.63;7.03;;;;;;;;;;5001395;28;20181;-68
2021/11/27 03:31:41;;;;;;;8.27;7.57;;;;;;;;;;4992961;28;20671;-68
2021/11/27 03:34:06;;;;;;;8.47;7.77;;;;;;;;;;4993950;28;20591;-69
2021/11/27 03:36:31;;;;;;;8.07;7.33;;;;;;;;;;4998105;28;20604;-68
2021/11/27 03:38:57;;;;;;;8.23;7.47;;;;;;;;;;4995317;28;20193;-68
2021/11/27 03:41:22;;;;;;;8.23;7.53;;;;;;;;;;4996653;28;20904;-69
2021/11/27 03:43:48;;;;;;;8.47;7.67;;;;;;;;;;4997485;28;20193;-68
2021/11/27 03:46:13;;;;;;;8.63;7.87;;;;;;;;;;4995540;28;20212;-68
2021/11/27 03:48:40;;;;;;;7.90;7.20;;;;;;;;;;4996157;28;20205;-68
2021/11/27 03:51:07;;;;;;;8.93;7.97;;;;;;;;;;5000217;28;20192;-68
2021/11/27 03:53:34;;;;;;;8.10;7.50;;;;;;;;;;4999270;28;20427;-70
2021/11/27 03:56:01;;;;;;;8.00;7.30;;;;;;;;;;4995179;28;20452;-68
2021/11/27 03:58:27;;;;;;;8.73;8.03;;;;;;;;;;4993868;28;20458;-69
2021/11/27 04:00:53;;;;;;;8.87;8.17;;;;;;;;;;4993789;28;20443;-68
2021/11/27 04:03:19;;;;;;;8.40;7.63;;;;;;;;;;4999189;28;20197;-69
2021/11/27 04:05:49;;;;;;;9.23;8.33;;;;;;;;;;4998700;28;20468;-68
2021/11/27 04:08:14;;;;;;;8.47;7.67;;;;;;;;;;4997498;28;20431;-69
2021/11/27 04:10:40;;;;;;;8.70;7.87;;;;;;;;;;4997180;28;20436;-69
2021/11/27 04:13:05;;;;;;;9.43;8.60;;;;;;;;;;4993233;28;20177;-69
2021/11/27 04:15:30;;;;;;;8.40;7.67;;;;;;;;;;4988581;28;20316;-69
2021/11/27 04:17:56;;;;;;;8.83;8.00;;;;;;;;;;4996966;28;20647;-69
2021/11/27 04:20:21;;;;;;;8.53;7.83;;;;;;;;;;4990039;28;20194;-69
2021/11/27 04:22:46;;;;;;;9.20;8.40;;;;;;;;;;4995219;28;20192;-68
2021/11/27 04:25:12;;;;;;;8.27;7.47;;;;;;;;;;4997628;28;20252;-68
2021/11/27 04:27:37;;;;;;;9.90;8.90;;;;;;;;;;4994226;28;20181;-69
2021/11/27 04:30:07;;;;;;;9.03;8.13;;;;;;;;;;4998177;28;20181;-69
2021/11/27 04:32:33;;;;;;;9.30;8.40;;;;;;;;;;4995044;28;20264;-69
2021/11/27 04:34:58;;;;;;;10.20;8.30;;;;;;;;;;4993008;28;20448;-69
2021/11/27 04:37:24;;;;;;;9.97;9.07;;;;;;;;;;4994072;28;20659;-69
2021/11/27 04:39:50;;;;;;;9.97;9.07;;;;;;;;;;4996813;28;20627;-68
2021/11/27 04:42:15;;;;;;;9.13;8.30;;;;;;;;;;4999392;28;20173;-68
2021/11/27 04:44:40;;;;;;;8.33;7.53;;;;;;;;;;4993169;28;20435;-69
2021/11/27 04:47:06;;;;;;;8.60;7.80;;;;;;;;;;4994782;28;20256;-69
2021/11/27 04:49:31;;;;;;;7.80;7.10;;;;;;;;;;4999446;28;20267;-69
2021/11/27 04:51:56;;;;;;;8.77;7.87;;;;;;;;;;4995875;28;20272;-69
2021/11/27 04:54:22;;;;;;;7.60;7.00;;;;;;;;;;4991620;28;20705;-69
2021/11/27 04:56:47;;;;;;;8.87;8.07;;;;;;;;;;4994833;28;20690;-69
2021/11/27 04:59:13;;;;;;;7.83;7.13;;;;;;;;;;4997482;28;20338;-68
2021/11/27 05:01:38;;;;;;;7.80;7.10;;;;;;;;;;4993783;28;20185;-69
2021/11/27 05:04:04;;;;;;;7.30;6.70;;;;;;;;;;4986241;28;20204;-69
2021/11/27 05:06:30;;;;;;;7.63;7.00;;;;;;;;;;4990193;28;20216;-69
2021/11/27 05:08:56;;;;;;;7.13;6.20;;;;;;;;;;4997383;28;20951;-69
2021/11/27 05:11:21;;;;;;;7.30;6.70;;;;;;;;;;5001468;28;20436;-69
2021/11/27 05:13:46;;;;;;;6.43;5.93;;;;;;;;;;4994668;28;20201;-68
2021/11/27 05:16:12;;;;;;;7.17;6.47;;;;;;;;;;4994621;28;20691;-69
2021/11/27 05:18:37;;;;;;;7.03;6.47;;;;;;;;;;4994127;28;20276;-68
2021/11/27 05:21:03;;;;;;;8.63;7.43;;;;;;;;;;4997429;28;20181;-68
2021/11/27 05:23:28;;;;;;;6.80;6.27;;;;;;;;;;4995282;28;20219;-67
2021/11/27 05:25:54;;;;;;;7.27;6.67;;;;;;;;;;4988593;28;20216;-68
2021/11/27 05:28:19;;;;;;;7.77;7.17;;;;;;;;;;4992447;28;20924;-69
2021/11/27 05:30:44;;;;;;;6.60;6.00;;;;;;;;;;4991530;28;20747;-67
2021/11/27 05:33:14;;;;;;;7.70;7.00;;;;;;;;;;4994756;28;20200;-68
2021/11/27 05:35:40;;;;;;;7.30;6.70;;;;;;;;;;4999477;28;20240;-68
2021/11/27 05:38:05;;;;;;;7.50;6.90;;;;;;;;;;4999791;28;20482;-68
2021/11/27 05:40:31;;;;;;;8.17;7.47;;;;;;;;;;4997178;28;20451;-69
2021/11/27 05:42:56;;;;;;;7.60;7.00;;;;;;;;;;5000654;28;20280;-69
2021/11/27 05:45:27;;;;;;;7.57;6.87;;;;;;;;;;4996984;28;20208;-68
2021/11/27 05:47:53;;;;;;;8.37;7.57;;;;;;;;;;5000835;28;20178;-69
2021/11/27 05:50:19;;;;;;;8.43;7.63;;;;;;;;;;5001463;28;21219;-68
2021/11/27 05:52:44;;;;;;;7.83;7.23;;;;;;;;;;5000563;28;20431;-68
2021/11/27 05:55:09;;;;;;;8.20;7.40;;;;;;;;;;5001254;28;20284;-69
2021/11/27 05:57:35;;;;;;;7.40;6.80;;;;;;;;;;5000489;28;20328;-69
2021/11/27 06:00:00;;;;;;;8.50;7.63;;;;;;;;;;5000881;28;20262;-69
2021/11/27 06:02:25;;;;;;;7.50;6.90;;;;;;;;;;5001210;28;20193;-68
2021/11/27 06:04:51;;;;;;;8.00;7.30;;;;;;;;;;4999198;28;20272;-68
2021/11/27 06:07:16;;;;;;;8.30;7.20;;;;;;;;;;4999504;28;20255;-70
2021/11/27 06:09:42;;;;;;;7.77;7.07;;;;;;;;;;5001916;28;20204;-68
2021/11/27 06:12:07;;;;;;;7.70;7.10;;;;;;;;;;5000654;28;20227;-69
2021/11/27 06:14:34;;;;;;;7.10;6.57;;;;;;;;;;4990876;28;20216;-69
2021/11/27 06:16:59;;;;;;;7.80;7.10;;;;;;;;;;4994892;28;20211;-69
2021/11/27 06:19:25;;;;;;;6.80;6.30;;;;;;;;;;5000617;28;20436;-69
2021/11/27 06:21:50;;;;;;;8.03;6.73;;;;;;;;;;4997424;28;20213;-69
2021/11/27 06:24:15;;;;;;;7.07;6.47;;;;;;;;;;4988473;28;20185;-69
2021/11/27 06:26:40;;;;;;;7.30;6.70;;;;;;;;;;5013096;28;21217;-69
2021/11/27 06:29:06;;;;;;;7.23;6.60;;;;;;;;;;5000732;28;20192;-69
2021/11/27 06:31:31;;;;;;;7.37;6.60;;;;;;;;;;4998855;28;20299;-69
2021/11/27 06:33:57;;;;;;;6.57;6.00;;;;;;;;;;4994032;28;20217;-69
2021/11/27 06:36:24;;;;;;;7.33;6.73;;;;;;;;;;4996744;28;20200;-69
2021/11/27 06:38:50;;;;;;;6.93;6.40;;;;;;;;;;5002519;28;20767;-69
2021/11/27 06:41:17;;;;;;;8.10;6.40;;;;;;;;;;4995927;28;20435;-69
2021/11/27 06:43:43;;;;;;;7.20;6.60;;;;;;;;;;4995520;28;20189;-69
2021/11/27 06:46:08;;;;;;;7.47;6.50;;;;;;;;;;4994573;28;20483;-69
2021/11/27 06:48:33;;;;;;;7.13;6.53;;;;;;;;;;4993153;28;20636;-69
2021/11/27 06:50:59;;;;;;;6.97;6.33;;;;;;;;;;4992114;28;20193;-69
2021/11/27 06:53:24;;;;;;;7.17;6.47;;;;;;;;;;4993958;28;20181;-67
2021/11/27 06:55:49;;;;;;;7.37;6.67;;;;;;;;;;4993342;28;20216;-68
2021/11/27 06:58:15;;;;;;;7.13;6.43;;;;;;;;;;4993556;28;20193;-68
2021/11/27 07:00:40;;;;;;;6.83;6.23;;;;;;;;;;4998169;28;20186;-67
2021/11/27 07:03:05;;;;;;;7.37;6.77;;;;;;;;;;5000769;28;20189;-67
2021/11/27 07:05:31;;;;;;;7.30;6.63;;;;;;;;;;4995003;28;20213;-68
2021/11/27 07:07:56;;;;;;;7.30;6.70;;;;;;;;;;4992601;28;20181;-69
2021/11/27 07:10:21;;;;;;;7.33;6.63;;;;;;;;;;4991513;28;20181;-66
2021/11/27 07:12:47;;;;;;;7.87;7.17;;;;;;;;;;4997533;28;20189;-68
2021/11/27 07:15:12;;;;;;;7.70;7.00;;;;;;;;;;5002535;28;20938;-68
2021/11/27 07:17:37;;;;;;;7.73;7.00;;;;;;;;;;4995174;28;20669;-67
2021/11/27 07:20:04;;;;;;;7.30;6.70;;;;;;;;;;4992467;28;20743;-68
2021/11/27 07:22:29;;;;;;;8.07;7.27;;;;;;;;;;4997391;28;20200;-68
2021/11/27 07:24:55;;;;;;;8.23;7.43;;;;;;;;;;4993196;28;20447;-69
2021/11/27 07:27:20;;;;;;;8.33;7.63;;;;;;;;;;4992419;28;20183;-69
2021/11/27 07:29:46;;;;;;;8.03;7.33;;;;;;;;;;4995235;28;20209;-69
2021/11/27 07:32:11;;;;;;;9.00;8.13;;;;;;;;;;4991721;28;20186;-68
2021/11/27 07:34:36;;;;;;;9.37;7.93;;;;;;;;;;4994197;28;20856;-68
2021/11/27 07:37:02;;;;;;;9.23;8.33;;;;;;;;;;4995108;28;20200;-67
2021/11/27 07:39:27;;;;;;;9.53;8.50;;;;;;;;;;4993613;28;20181;-68
2021/11/27 07:41:53;;;;;;;9.30;8.40;;;;;;;;;;4994485;28;20169;-68
2021/11/27 07:44:19;;;;;;;8.67;7.87;;;;;;;;;;4991663;28;20193;-68
2021/11/27 07:46:47;;;;;;;10.10;7.83;;;;;;;;;;4990317;28;20695;-68
2021/11/27 07:49:13;;;;;;;8.57;7.00;;;;;;;;;;4988778;28;20553;-69
2021/11/27 07:51:38;;;;;;;8.83;7.93;;;;;;;;;;4990087;28;20436;-69
2021/11/27 07:54:04;;;;;;;11.33;8.23;;;;;;;;;;4995472;28;20431;-69
2021/11/27 07:56:29;;;;;;;12.60;8.00;;;;;;;;;;4993846;28;20251;-69
2021/11/27 07:58:54;;;;;;;9.60;8.60;;;;;;;;;;4987102;28;24254;-70
2021/11/27 08:01:20;;;;;;;9.73;7.60;;;;;;;;;;4992169;28;20173;-68
2021/11/27 08:03:46;;;;;;;8.67;7.87;;;;;;;;;;4997342;28;20177;-69
2021/11/27 08:06:11;;;;;;;8.57;7.77;;;;;;;;;;4993208;28;20209;-68
2021/11/27 08:08:37;;;;;;;9.47;8.50;;;;;;;;;;4987862;28;20433;-67
2021/11/27 08:11:02;;;;;;;9.33;8.43;;;;;;;;;;4993796;28;20667;-68
2021/11/27 08:13:28;;;;;;;8.90;8.10;;;;;;;;;;4999433;28;20181;-68
2021/11/27 08:15:53;;;;;;;9.00;8.17;;;;;;;;;;4994004;28;20193;-69
2021/11/27 08:18:18;;;;;;;8.60;7.90;;;;;;;;;;4988712;28;20193;-68
2021/11/27 08:20:49;;;;;;;8.47;7.70;;;;;;;;;;4988162;28;20176;-68
2021/11/27 08:23:14;;;;;;;9.80;8.40;;;;;;;;;;4994779;28;20173;-69
2021/11/27 08:25:40;;;;;;;8.03;7.23;;;;;;;;;;4989537;28;20481;-69
2021/11/27 08:28:05;;;;;;;8.90;8.10;;;;;;;;;;4994830;28;20181;-69
2021/11/27 08:30:30;;;;;;;8.90;8.03;;;;;;;;;;4986816;28;20260;-69
2021/11/27 08:32:56;;;;;;;8.73;7.70;;;;;;;;;;4990154;28;20181;-68
2021/11/27 08:35:21;;;;;;;9.17;8.00;;;;;;;;;;4984374;28;20237;-68
2021/11/27 08:37:46;;;;;;;8.30;7.50;;;;;;;;;;4995678;28;20268;-70
2021/11/27 08:40:12;;;;;;;8.33;7.10;;;;;;;;;;4996482;28;20182;-70
2021/11/27 08:42:38;;;;;;;8.83;8.10;;;;;;;;;;4999292;28;20275;-69
2021/11/27 08:45:05;;;;;;;9.67;8.67;;;;;;;;;;4987182;28;20670;-69
2021/11/27 08:47:30;;;;;;;8.23;7.47;;;;;;;;;;4984027;28;20211;-68
2021/11/27 08:49:58;;;;;;;8.53;7.80;;;;;;;;;;4987862;28;21013;-68
2021/11/27 08:52:23;;;;;;;8.53;7.57;;;;;;;;;;4997695;28;20169;-68
2021/11/27 08:54:49;;;;;;;8.17;7.40;;;;;;;;;;4990129;28;20420;-69
2021/11/27 08:57:14;;;;;;;9.60;8.73;;;;;;;;;;4992917;28;20216;-68
2021/11/27 08:59:39;;;;;;;9.57;8.67;;;;;;;;;;4998132;28;20256;-67
2021/11/27 09:02:05;;;;;;;9.00;8.10;;;;;;;;;;4993116;28;20169;-66
2021/11/27 09:04:31;;;;;;;8.70;7.90;;;;;;;;;;4995605;28;20181;-68
2021/11/27 09:06:56;;;;;;;8.67;7.87;;;;;;;;;;4990231;28;20208;-69
2021/11/27 09:09:21;;;;;;;9.80;8.90;;;;;;;;;;5006163;28;20180;-70
2021/11/27 09:11:49;;;;;;;8.33;7.53;;;;;;;;;;4993241;28;20261;-69
2021/11/27 09:14:15;;;;;;;7.77;6.90;;;;;;;;;;4987989;28;20834;-67
2021/11/27 09:16:40;;;;;;;8.80;7.90;;;;;;;;;;4990833;28;20819;-69
2021/11/27 09:19:06;;;;;;;8.17;7.47;;;;;;;;;;4990651;28;20452;-69
2021/11/27 09:21:32;;;;;;;8.70;7.90;;;;;;;;;;4995870;28;21879;-69
2021/11/27 09:23:57;;;;;;;7.57;6.77;;;;;;;;;;5002003;28;20278;-68
2021/11/27 09:26:22;;;;;;;7.73;7.03;;;;;;;;;;5001643;28;21047;-68
2021/11/27 09:28:48;;;;;;;8.90;8.00;;;;;;;;;;4992934;28;20186;-68
2021/11/27 09:31:13;;;;;;;8.30;7.50;;;;;;;;;;4996350;28;20687;-68
2021/11/27 09:33:39;;;;;;;10.60;8.17;;;;;;;;;;4998764;28;20173;-68
2021/11/27 09:36:09;;;;;;;9.23;8.43;;;;;;;;;;4984376;28;20206;-71
2021/11/27 09:38:35;;;;;;;8.10;7.30;;;;;;;;;;4983151;28;20177;-70
2021/11/27 09:41:23;;;;;;;9.10;7.87;;;;;;;;;;4989197;28;20440;-67
2021/11/27 09:43:50;;;;;;;9.10;7.73;;;;;;;;;;4986783;28;20443;-68
2021/11/27 09:46:18;;;;;;;9.30;8.40;;;;;;;;;;4996743;28;20467;-68
2021/11/27 09:48:48;;;;;;;8.50;7.67;;;;;;;;;;4986033;28;20431;-69
2021/11/27 09:51:13;;;;;;;9.10;8.20;;;;;;;;;;4993847;28;20466;-67
2021/11/27 09:53:39;;;;;;;8.10;7.30;;;;;;;;;;4994352;28;20944;-69
2021/11/27 09:56:06;;;;;;;8.97;8.17;;;;;;;;;;4997612;28;20236;-68
2021/11/27 09:58:31;;;;;;;9.80;8.80;;;;;;;;;;4998479;28;20919;-70
2021/11/27 10:00:57;;;;;;;9.23;7.90;;;;;;;;;;4996006;28;20427;-68
2021/11/27 10:03:23;;;;;;;9.07;8.17;;;;;;;;;;5001274;28;20217;-68
2021/11/27 10:05:48;;;;;;;8.93;8.13;;;;;;;;;;4993139;28;20252;-68
2021/11/27 10:08:14;;;;;;;10.40;8.40;;;;;;;;;;4990013;28;20757;-68
2021/11/27 10:10:39;;;;;;;10.07;9.07;;;;;;;;;;5001477;28;20188;-67
2021/11/27 10:13:05;;;;;;;8.60;7.83;;;;;;;;;;4997794;28;20197;-68
2021/11/27 10:15:30;;;;;;;8.70;7.90;;;;;;;;;;4999595;28;20205;-68
2021/11/27 10:17:55;;;;;;;8.43;7.47;;;;;;;;;;4988741;28;20208;-68
2021/11/27 10:20:21;;;;;;;9.10;8.20;;;;;;;;;;4993395;28;20185;-68
2021/11/27 10:22:53;;;;;;;10.53;8.97;;;;;;;;;;4990168;28;20268;-69
2021/11/27 10:25:29;;;;;;;9.87;8.40;;;;;;;;;;4987016;28;20262;-66
2021/11/27 10:28:00;;;;;;;9.23;8.27;;;;;;;;;;4993753;28;20435;-68
2021/11/27 10:30:25;;;;;;;9.00;8.00;;;;;;;;;;4989219;28;20431;-67
2021/11/27 10:32:51;;;;;;;8.37;7.57;;;;;;;;;;4984618;28;20894;-69
2021/11/27 10:35:20;;;;;;;9.30;8.40;;;;;;;;;;4982261;28;20256;-68
2021/11/27 10:37:47;;;;;;;9.67;7.90;;;;;;;;;;4986264;28;20185;-68
2021/11/27 10:40:12;;;;;;;10.87;8.37;;;;;;;;;;4985273;28;20459;-68
2021/11/27 10:42:42;;;;;;;10.90;8.37;;;;;;;;;;4992890;28;20949;-68
2021/11/27 10:45:10;;;;;;;8.13;7.43;;;;;;;;;;4991329;28;20276;-68
2021/11/27 10:47:35;;;;;;;7.67;6.97;;;;;;;;;;4989140;28;20470;-67
2021/11/27 10:50:05;;;;;;;7.17;6.50;;;;;;;;;;4993261;28;20867;-68
2021/11/27 10:52:33;;;;;;;10.53;7.70;;;;;;;;;;4997381;28;20271;-67
2021/11/27 10:54:59;;;;;;;10.40;7.90;;;;;;;;;;4987217;28;20450;-68
2021/11/27 10:57:28;;;;;;;8.53;7.63;;;;;;;;;;4988404;28;20473;-68
2021/11/27 10:59:54;;;;;;;7.90;7.20;;;;;;;;;;4999395;28;20428;-68
2021/11/27 11:02:22;;;;;;;8.13;7.40;;;;;;;;;;5002532;28;20450;-68
2021/11/27 11:04:58;;;;;;;10.43;8.00;;;;;;;;;;4994146;28;21839;-68
2021/11/27 11:07:27;;;;;;;9.20;7.57;;;;;;;;;;4975717;28;20429;-68
2021/11/27 11:10:07;;;;;;;8.00;7.30;;;;;;;;;;4992347;28;20436;-69
2021/11/27 11:12:51;;;;;;;8.83;7.93;;;;;;;;;;5004432;28;20588;-68
2021/11/27 11:15:22;;;;;;;8.73;7.93;;;;;;;;;;4991753;28;21028;-67
2021/11/27 11:17:50;;;;;;;9.00;8.10;;;;;;;;;;4987044;28;20443;-68
2021/11/27 11:20:22;;;;;;;9.80;8.77;;;;;;;;;;4982151;28;20816;-67
2021/11/27 11:23:04;;;;;;;11.17;8.80;;;;;;;;;;4976115;28;20431;-68
2021/11/27 11:25:29;;;;;;;9.47;8.43;;;;;;;;;;4990924;28;21667;-68
2021/11/27 11:27:55;;;;;;;8.50;7.67;;;;;;;;;;4992770;28;20507;-68
2021/11/27 11:30:22;;;;;;;7.90;7.20;;;;;;;;;;4994010;28;20562;-68
2021/11/27 11:32:47;;;;;;;8.90;8.00;;;;;;;;;;4993283;28;20192;-68
2021/11/27 11:35:14;;;;;;;7.60;6.90;;;;;;;;;;4986946;28;20444;-67
2021/11/27 11:37:39;;;;;;;7.70;7.00;;;;;;;;;;4987710;28;20227;-66
2021/11/27 11:40:05;;;;;;;8.27;7.43;;;;;;;;;;4988849;28;20440;-67
2021/11/27 11:42:31;;;;;;;7.83;7.13;;;;;;;;;;4988757;28;20259;-66
2021/11/27 11:44:56;;;;;;;7.53;6.87;;;;;;;;;;4980250;28;20263;-67
2021/11/27 11:47:22;;;;;;;8.57;7.77;;;;;;;;;;4984347;28;20201;-69
2021/11/27 11:49:55;;;;;;;7.10;6.40;;;;;;;;;;4986334;28;20188;-68
2021/11/27 11:52:23;;;;;;;7.90;7.17;;;;;;;;;;4982408;28;20435;-69
2021/11/27 11:54:57;;;;;;;7.83;7.13;;;;;;;;;;4982109;28;20948;-69
2021/11/27 11:57:22;;;;;;;8.23;7.47;;;;;;;;;;4986786;28;20935;-69
2021/11/27 11:59:49;;;;;;;8.37;7.57;;;;;;;;;;4992301;28;20476;-68
2021/11/27 12:02:14;;;;;;;9.50;8.60;;;;;;;;;;4992409;28;20196;-67
2021/11/27 12:04:59;;;;;;;8.30;7.50;;;;;;;;;;4998147;28;20431;-67
2021/11/27 12:07:43;;;;;;;8.87;7.97;;;;;;;;;;4986757;28;21470;-66
2021/11/27 12:10:19;;;;;;;9.37;8.47;;;;;;;;;;4993966;28;20432;-69
2021/11/27 12:13:05;;;;;;;8.73;7.80;;;;;;;;;;4982819;28;20984;-68
2021/11/27 12:15:30;;;;;;;7.73;7.00;;;;;;;;;;4981595;28;20530;-70
2021/11/27 12:18:04;;;;;;;7.90;7.20;;;;;;;;;;4993139;28;20436;-69
2021/11/27 12:20:43;;;;;;;8.53;7.63;;;;;;;;;;4997758;28;20223;-69
2021/11/27 12:23:38;;;;;;;8.63;7.73;;;;;;;;;;4986767;28;20438;-68
2021/11/27 12:26:06;;;;;;;8.37;7.57;;;;;;;;;;4987414;28;20468;-68
2021/11/27 12:28:31;;;;;;;8.63;7.70;;;;;;;;;;4987084;28;20435;-68
2021/11/27 12:30:57;;;;;;;9.07;8.17;;;;;;;;;;4997644;28;20856;-68
2021/11/27 12:33:41;;;;;;;17.03;8.13;;;;;;;;;;4994332;28;20643;-68
2021/11/27 12:36:06;;;;;;;10.60;9.60;;;;;;;;;;4984013;28;20452;-68
2021/11/27 12:38:32;;;;;;;10.90;9.80;;;;;;;;;;4982929;28;21360;-68
2021/11/27 12:40:59;;;;;;;10.87;9.83;;;;;;;;;;4997697;28;20181;-67
2021/11/27 12:43:25;;;;;;;12.17;10.97;;;;;;;;;;4989450;28;20443;-67
2021/11/27 12:45:56;;;;;;;12.50;10.30;;;;;;;;;;4993391;28;20896;-68
2021/11/27 12:48:37;;;;;;;11.67;10.57;;;;;;;;;;4993389;28;20479;-66
2021/11/27 12:51:21;;;;;;;11.63;10.53;;;;;;;;;;4997326;28;20837;-69
2021/11/27 12:53:59;;;;;;;12.40;10.70;;;;;;;;;;4993096;28;20431;-67
2021/11/27 12:56:29;;;;;;;12.87;11.67;;;;;;;;;;4992873;28;20462;-67
2021/11/27 12:58:55;;;;;;;12.07;10.93;;;;;;;;;;4990012;28;20496;-68
2021/11/27 13:01:28;;;;;;;12.60;11.30;;;;;;;;;;4993980;28;20953;-68
2021/11/27 13:03:54;;;;;;;10.93;9.93;;;;;;;;;;4991131;28;20462;-69
2021/11/27 13:06:19;;;;;;;12.17;11.07;;;;;;;;;;4996194;28;20879;-69
2021/11/27 13:08:44;;;;;;;14.07;11.43;;;;;;;;;;4996416;28;20179;-68
2021/11/27 13:11:10;;;;;;;12.07;10.77;;;;;;;;;;4985724;28;20189;-67
2021/11/27 13:13:37;;;;;;;12.53;11.33;;;;;;;;;;4997333;28;20195;-67
2021/11/27 13:16:06;;;;;;;11.63;10.53;;;;;;;;;;4987391;28;21011;-68
2021/11/27 13:18:31;;;;;;;12.73;11.43;;;;;;;;;;4981183;28;20484;-68
2021/11/27 13:21:00;;;;;;;12.50;11.30;;;;;;;;;;4982801;28;20523;-68
2021/11/27 13:23:27;;;;;;;11.90;10.80;;;;;;;;;;4991260;28;20186;-68
2021/11/27 13:25:54;;;;;;;12.50;11.00;;;;;;;;;;4995139;28;21032;-67
2021/11/27 13:28:36;;;;;;;10.87;9.77;;;;;;;;;;4992503;28;20428;-68
2021/11/27 13:31:03;;;;;;;11.77;10.67;;;;;;;;;;4990076;28;20459;-69
2021/11/27 13:33:58;;;;;;;11.23;10.13;;;;;;;;;;4990427;28;20446;-68
2021/11/27 13:36:33;;;;;;;11.77;10.60;;;;;;;;;;4983465;28;20470;-68
2021/11/27 13:39:10;;;;;;;11.90;10.70;;;;;;;;;;4996531;28;20823;-68
2021/11/27 13:41:35;;;;;;;12.07;10.87;;;;;;;;;;4991770;28;20447;-69
2021/11/27 13:44:01;;;;;;;13.57;12.23;;;;;;;;;;4993257;28;21044;-68
2021/11/27 13:46:26;;;;;;;11.50;10.40;;;;;;;;;;4990501;28;20209;-68
2021/11/27 13:48:51;;;;;;;11.33;10.23;;;;;;;;;;4991887;28;20185;-68
2021/11/27 13:51:20;;;;;;;11.53;10.27;;;;;;;;;;4998429;28;20174;-68
2021/11/27 13:53:46;;;;;;;12.00;10.80;;;;;;;;;;4999735;28;20303;-68
2021/11/27 13:56:11;;;;;;;15.03;13.33;;;;;;;;;;4999090;28;20579;-68
2021/11/27 13:58:37;;;;;;;19.83;16.10;;;;;;;;;;4996289;28;20523;-68
2021/11/27 14:01:02;;;;;;;8.77;7.87;;;;;;;;;;4999145;28;20177;-68
2021/11/27 14:03:40;;;;;;;10.60;8.77;;;;;;;;;;4995223;28;20476;-68
2021/11/27 14:06:10;;;;;;;23.30;12.40;;;;;;;;;;4997095;28;20561;-67
2021/11/27 14:08:36;;;;;;;18.33;9.73;;;;;;;;;;4987459;28;20436;-67
2021/11/27 14:11:03;;;;;;;25.20;11.60;;;;;;;;;;5001701;28;21097;-68
2021/11/27 14:13:30;;;;;;;6.50;4.40;;;;;;;;;;5002456;28;20226;-68
2021/11/27 14:15:55;;;;;;;5.40;4.60;;;;;;;;;;5001787;28;20463;-67
2021/11/27 14:18:26;;;;;;;2.37;2.20;;;;;;;;;;4998764;28;20442;-68
2021/11/27 14:20:53;;;;;;;1.90;1.80;;;;;;;;;;4993820;28;20239;-69
2021/11/27 14:23:19;;;;;;;1.80;1.70;;;;;;;;;;4992014;28;20448;-68
2021/11/27 14:26:04;;;;;;;1.57;1.47;;;;;;;;;;4999266;28;20467;-66
2021/11/27 14:28:29;;;;;;;2.80;1.70;;;;;;;;;;4995999;28;20433;-68
2021/11/27 14:30:55;;;;;;;2.27;2.07;;;;;;;;;;4998292;28;20439;-67
2021/11/27 14:33:31;;;;;;;1.97;1.87;;;;;;;;;;4995387;28;20188;-68
2021/11/27 14:35:59;;;;;;;3.30;3.07;;;;;;;;;;4995104;28;20208;-68
2021/11/27 14:38:32;;;;;;;4.17;3.77;;;;;;;;;;4986996;28;20445;-67
2021/11/27 14:40:58;;;;;;;3.77;3.47;;;;;;;;;;4982866;28;20471;-68